sensor_id;sensor_type;location;lat;lon;timestamp;pressure;altitude;pressure_sealevel;temperature;humidity
62124;BME280;48110;47.532;19.078;2023-02-27T00:01:29;100412.28;;;0.76;71.19
62124;BME280;48110;47.532;19.078;2023-02-27T00:04:41;100414.56;;;0.68;70.82
62124;BME280;48110;47.532;19.078;2023-02-27T00:07:48;100412.38;;;0.62;71.55
62124;BME280;48110;47.532;19.078;2023-02-27T00:10:56;100418.75;;;0.58;71.75
62124;BME280;48110;47.532;19.078;2023-02-27T00:14:04;100426.25;;;0.50;72.08
62124;BME280;48110;47.532;19.078;2023-02-27T00:17:11;100428.53;;;0.41;73.02
62124;BME280;48110;47.532;19.078;2023-02-27T00:20:19;100443.59;;;0.51;73.85
62124;BME280;48110;47.532;19.078;2023-02-27T00:23:29;100434.91;;;0.37;74.33
62124;BME280;48110;47.532;19.078;2023-02-27T00:26:37;100435.53;;;0.28;75.51
62124;BME280;48110;47.532;19.078;2023-02-27T00:29:46;100443.13;;;0.31;75.71
62124;BME280;48110;47.532;19.078;2023-02-27T00:32:56;100441.84;;;0.24;76.61
62124;BME280;48110;47.532;19.078;2023-02-27T00:36:04;100442.56;;;0.14;78.39
62124;BME280;48110;47.532;19.078;2023-02-27T00:39:13;100454.78;;;0.13;77.70
62124;BME280;48110;47.532;19.078;2023-02-27T00:42:22;100464.75;;;0.33;77.31
62124;BME280;48110;47.532;19.078;2023-02-27T00:45:29;100460.66;;;0.29;77.99
62124;BME280;48110;47.532;19.078;2023-02-27T00:48:38;100457.75;;;0.34;76.99
62124;BME280;48110;47.532;19.078;2023-02-27T00:51:47;100452.62;;;0.32;78.05
62124;BME280;48110;47.532;19.078;2023-02-27T00:54:57;100465.06;;;0.29;78.56
62124;BME280;48110;47.532;19.078;2023-02-27T00:58:08;100463.87;;;0.20;78.05
62124;BME280;48110;47.532;19.078;2023-02-27T01:01:18;100478.69;;;0.20;78.19
62124;BME280;48110;47.532;19.078;2023-02-27T01:04:29;100475.53;;;0.15;79.19
62124;BME280;48110;47.532;19.078;2023-02-27T01:07:38;100481.03;;;0.10;79.29
62124;BME280;48110;47.532;19.078;2023-02-27T01:10:46;100482.09;;;0.08;78.79
62124;BME280;48110;47.532;19.078;2023-02-27T01:13:54;100486.25;;;0.10;79.24
62124;BME280;48110;47.532;19.078;2023-02-27T01:17:07;100484.94;;;0.17;78.11
62124;BME280;48110;47.532;19.078;2023-02-27T01:20:17;100488.31;;;0.19;78.43
62124;BME280;48110;47.532;19.078;2023-02-27T01:23:26;100488.56;;;0.15;77.98
62124;BME280;48110;47.532;19.078;2023-02-27T01:26:34;100492.81;;;0.03;79.25
62124;BME280;48110;47.532;19.078;2023-02-27T01:29:41;100499.00;;;0.15;78.04
62124;BME280;48110;47.532;19.078;2023-02-27T01:32:50;100492.56;;;0.20;77.98
62124;BME280;48110;47.532;19.078;2023-02-27T01:35:58;100495.16;;;0.20;76.82
62124;BME280;48110;47.532;19.078;2023-02-27T01:39:06;100494.47;;;0.31;76.68
62124;BME280;48110;47.532;19.078;2023-02-27T01:42:17;100504.59;;;0.23;77.01
62124;BME280;48110;47.532;19.078;2023-02-27T01:45:26;100493.41;;;0.21;77.32
62124;BME280;48110;47.532;19.078;2023-02-27T01:48:37;100494.87;;;0.25;77.23
62124;BME280;48110;47.532;19.078;2023-02-27T01:51:48;100501.75;;;0.26;77.47
62124;BME280;48110;47.532;19.078;2023-02-27T01:54:57;100493.91;;;0.13;78.16
62124;BME280;48110;47.532;19.078;2023-02-27T01:58:09;100495.06;;;0.22;77.56
62124;BME280;48110;47.532;19.078;2023-02-27T02:01:20;100490.63;;;0.24;77.14
62124;BME280;48110;47.532;19.078;2023-02-27T02:04:32;100494.87;;;0.25;76.93
62124;BME280;48110;47.532;19.078;2023-02-27T02:07:40;100501.59;;;0.29;76.40
62124;BME280;48110;47.532;19.078;2023-02-27T02:10:50;100507.72;;;0.28;76.56
62124;BME280;48110;47.532;19.078;2023-02-27T02:14:02;100508.56;;;0.28;76.02
62124;BME280;48110;47.532;19.078;2023-02-27T02:23:56;100525.41;;;0.37;74.93
62124;BME280;48110;47.532;19.078;2023-02-27T02:27:26;100527.91;;;0.38;73.67
62124;BME280;48110;47.532;19.078;2023-02-27T02:30:43;100545.03;;;0.42;73.56
62124;BME280;48110;47.532;19.078;2023-02-27T02:37:58;100547.25;;;0.49;72.43
62124;BME280;48110;47.532;19.078;2023-02-27T02:47:41;100553.66;;;0.57;70.92
62124;BME280;48110;47.532;19.078;2023-02-27T02:51:03;100546.53;;;0.59;70.47
62124;BME280;48110;47.532;19.078;2023-02-27T02:54:16;100541.78;;;0.66;70.24
62124;BME280;48110;47.532;19.078;2023-02-27T02:57:28;100561.50;;;0.57;70.46
62124;BME280;48110;47.532;19.078;2023-02-27T03:00:51;100558.97;;;0.56;69.62
62124;BME280;48110;47.532;19.078;2023-02-27T03:04:10;100552.59;;;0.60;70.54
62124;BME280;48110;47.532;19.078;2023-02-27T03:13:59;100563.69;;;0.63;70.05
62124;BME280;48110;47.532;19.078;2023-02-27T03:17:21;100563.78;;;0.62;69.20
62124;BME280;48110;47.532;19.078;2023-02-27T03:20:40;100568.59;;;0.68;68.71
62124;BME280;48110;47.532;19.078;2023-02-27T03:23:49;100569.97;;;0.73;67.71
62124;BME280;48110;47.532;19.078;2023-02-27T03:27:03;100580.72;;;0.69;68.65
62124;BME280;48110;47.532;19.078;2023-02-27T03:30:15;100587.38;;;0.60;68.26
62124;BME280;48110;47.532;19.078;2023-02-27T03:33:26;100582.69;;;0.65;68.42
62124;BME280;48110;47.532;19.078;2023-02-27T03:36:42;100586.06;;;0.67;67.57
62124;BME280;48110;47.532;19.078;2023-02-27T03:46:34;100593.06;;;0.67;67.39
62124;BME280;48110;47.532;19.078;2023-02-27T03:49:49;100599.66;;;0.72;66.20
62124;BME280;48110;47.532;19.078;2023-02-27T03:53:06;100600.88;;;0.67;65.58
62124;BME280;48110;47.532;19.078;2023-02-27T03:56:21;100603.37;;;0.68;65.68
62124;BME280;48110;47.532;19.078;2023-02-27T03:59:37;100604.75;;;0.74;65.76
62124;BME280;48110;47.532;19.078;2023-02-27T04:02:47;100605.59;;;0.74;64.72
62124;BME280;48110;47.532;19.078;2023-02-27T04:06:04;100610.09;;;0.72;64.36
62124;BME280;48110;47.532;19.078;2023-02-27T04:09:38;100616.25;;;0.71;64.02
62124;BME280;48110;47.532;19.078;2023-02-27T04:12:54;100610.19;;;0.71;64.50
62124;BME280;48110;47.532;19.078;2023-02-27T04:22:53;100617.81;;;0.74;64.51
62124;BME280;48110;47.532;19.078;2023-02-27T04:29:22;100612.72;;;0.72;65.01
62124;BME280;48110;47.532;19.078;2023-02-27T04:32:37;100619.59;;;0.73;64.78
62124;BME280;48110;47.532;19.078;2023-02-27T04:39:10;100628.56;;;0.69;64.68
62124;BME280;48110;47.532;19.078;2023-02-27T04:42:23;100629.41;;;0.70;64.79
62124;BME280;48110;47.532;19.078;2023-02-27T04:45:33;100631.78;;;0.73;63.94
62124;BME280;48110;47.532;19.078;2023-02-27T04:48:51;100641.69;;;0.68;64.28
62124;BME280;48110;47.532;19.078;2023-02-27T04:52:00;100635.66;;;0.67;64.30
62124;BME280;48110;47.532;19.078;2023-02-27T04:55:19;100636.47;;;0.68;63.94
62124;BME280;48110;47.532;19.078;2023-02-27T04:58:48;100633.16;;;0.66;63.93
62124;BME280;48110;47.532;19.078;2023-02-27T05:02:01;100645.66;;;0.61;63.55
62124;BME280;48110;47.532;19.078;2023-02-27T05:05:16;100644.97;;;0.71;63.45
62124;BME280;48110;47.532;19.078;2023-02-27T05:11:45;100645.88;;;0.58;65.00
62124;BME280;48110;47.532;19.078;2023-02-27T05:18:27;100664.47;;;0.66;63.41
62124;BME280;48110;47.532;19.078;2023-02-27T05:21:35;100668.84;;;0.65;63.82
62124;BME280;48110;47.532;19.078;2023-02-27T05:27:49;100674.28;;;0.62;63.05
62124;BME280;48110;47.532;19.078;2023-02-27T05:30:56;100670.00;;;0.61;62.58
62124;BME280;48110;47.532;19.078;2023-02-27T05:34:31;100674.28;;;0.62;62.66
62124;BME280;48110;47.532;19.078;2023-02-27T05:37:49;100682.19;;;0.61;62.16
62124;BME280;48110;47.532;19.078;2023-02-27T05:41:13;100693.50;;;0.61;62.18
62124;BME280;48110;47.532;19.078;2023-02-27T05:44:24;100696.28;;;0.58;62.89
62124;BME280;48110;47.532;19.078;2023-02-27T05:47:31;100699.09;;;0.55;63.32
62124;BME280;48110;47.532;19.078;2023-02-27T05:50:39;100695.75;;;0.53;62.70
62124;BME280;48110;47.532;19.078;2023-02-27T05:53:49;100706.38;;;0.50;63.28
62124;BME280;48110;47.532;19.078;2023-02-27T05:56:59;100706.28;;;0.52;64.15
62124;BME280;48110;47.532;19.078;2023-02-27T06:00:12;100714.47;;;0.60;63.26
62124;BME280;48110;47.532;19.078;2023-02-27T06:03:19;100721.66;;;0.56;62.56
62124;BME280;48110;47.532;19.078;2023-02-27T06:06:24;100723.72;;;0.51;63.50
62124;BME280;48110;47.532;19.078;2023-02-27T06:09:31;100733.81;;;0.43;63.93
62124;BME280;48110;47.532;19.078;2023-02-27T06:12:36;100736.22;;;0.46;63.85
62124;BME280;48110;47.532;19.078;2023-02-27T06:15:41;100738.44;;;0.52;64.03
62124;BME280;48110;47.532;19.078;2023-02-27T06:18:46;100743.38;;;0.57;63.02
62124;BME280;48110;47.532;19.078;2023-02-27T06:21:52;100747.94;;;0.67;62.81
62124;BME280;48110;47.532;19.078;2023-02-27T06:24:57;100747.56;;;0.59;62.60
62124;BME280;48110;47.532;19.078;2023-02-27T06:28:02;100761.44;;;0.60;62.56
62124;BME280;48110;47.532;19.078;2023-02-27T06:31:06;100766.00;;;0.70;61.91
62124;BME280;48110;47.532;19.078;2023-02-27T06:34:11;100770.75;;;0.64;61.92
62124;BME280;48110;47.532;19.078;2023-02-27T06:37:17;100777.94;;;0.74;61.29
62124;BME280;48110;47.532;19.078;2023-02-27T06:40:22;100798.97;;;1.00;60.87
62124;BME280;48110;47.532;19.078;2023-02-27T06:43:26;100798.97;;;1.00;61.46
62124;BME280;48110;47.532;19.078;2023-02-27T06:46:31;100802.47;;;1.13;60.97
62124;BME280;48110;47.532;19.078;2023-02-27T06:49:34;100810.63;;;1.08;59.71
62124;BME280;48110;47.532;19.078;2023-02-27T06:52:38;100813.31;;;1.21;59.52
62124;BME280;48110;47.532;19.078;2023-02-27T06:55:41;100814.81;;;1.38;58.84
62124;BME280;48110;47.532;19.078;2023-02-27T06:58:45;100820.25;;;1.35;58.49
62124;BME280;48110;47.532;19.078;2023-02-27T07:01:48;100823.22;;;1.43;58.92
62124;BME280;48110;47.532;19.078;2023-02-27T07:04:52;100836.75;;;1.49;58.82
62124;BME280;48110;47.532;19.078;2023-02-27T07:07:55;100827.44;;;1.58;57.29
62124;BME280;48110;47.532;19.078;2023-02-27T07:11:00;100837.53;;;1.64;57.27
62124;BME280;48110;47.532;19.078;2023-02-27T07:14:04;100832.28;;;1.64;57.91
62124;BME280;48110;47.532;19.078;2023-02-27T07:17:12;100837.78;;;1.86;57.41
62124;BME280;48110;47.532;19.078;2023-02-27T07:20:17;100828.78;;;1.90;55.70
62124;BME280;48110;47.532;19.078;2023-02-27T07:23:21;100835.25;;;1.85;56.32
62124;BME280;48110;47.532;19.078;2023-02-27T07:26:24;100831.41;;;1.90;56.73
62124;BME280;48110;47.532;19.078;2023-02-27T07:29:31;100839.66;;;1.84;55.18
62124;BME280;48110;47.532;19.078;2023-02-27T07:32:36;100833.06;;;1.79;55.96
62124;BME280;48110;47.532;19.078;2023-02-27T07:35:42;100838.06;;;1.69;55.17
62124;BME280;48110;47.532;19.078;2023-02-27T07:38:47;100848.00;;;1.77;55.22
62124;BME280;48110;47.532;19.078;2023-02-27T07:41:52;100850.87;;;1.86;55.08
62124;BME280;48110;47.532;19.078;2023-02-27T07:44:57;100853.19;;;2.03;54.32
62124;BME280;48110;47.532;19.078;2023-02-27T07:48:03;100858.09;;;1.83;56.12
62124;BME280;48110;47.532;19.078;2023-02-27T07:51:10;100862.31;;;2.10;55.18
62124;BME280;48110;47.532;19.078;2023-02-27T07:54:15;100867.19;;;2.42;53.34
62124;BME280;48110;47.532;19.078;2023-02-27T07:57:19;100869.03;;;2.14;54.03
62124;BME280;48110;47.532;19.078;2023-02-27T08:00:23;100865.78;;;1.98;53.91
62124;BME280;48110;47.532;19.078;2023-02-27T08:03:28;100860.09;;;2.04;55.19
62124;BME280;48110;47.532;19.078;2023-02-27T08:06:33;100867.25;;;2.28;53.66
62124;BME280;48110;47.532;19.078;2023-02-27T08:09:38;100874.09;;;2.68;53.22
62124;BME280;48110;47.532;19.078;2023-02-27T08:12:41;100869.91;;;3.27;52.62
62124;BME280;48110;47.532;19.078;2023-02-27T08:15:47;100863.69;;;3.41;50.54
62124;BME280;48110;47.532;19.078;2023-02-27T08:18:52;100876.66;;;4.14;49.09
62124;BME280;48110;47.532;19.078;2023-02-27T08:21:58;100885.81;;;4.08;48.68
62124;BME280;48110;47.532;19.078;2023-02-27T08:25:04;100883.22;;;3.37;50.27
62124;BME280;48110;47.532;19.078;2023-02-27T08:28:10;100879.75;;;3.00;51.86
62124;BME280;48110;47.532;19.078;2023-02-27T08:31:14;100892.22;;;2.71;52.53
62124;BME280;48110;47.532;19.078;2023-02-27T08:34:18;100897.47;;;2.46;52.30
62124;BME280;48110;47.532;19.078;2023-02-27T08:37:21;100893.59;;;2.51;52.85
62124;BME280;48110;47.532;19.078;2023-02-27T08:40:25;100906.47;;;2.92;51.92
62124;BME280;48110;47.532;19.078;2023-02-27T08:43:29;100913.69;;;2.63;51.15
62124;BME280;48110;47.532;19.078;2023-02-27T08:46:32;100913.88;;;2.35;52.53
62124;BME280;48110;47.532;19.078;2023-02-27T08:49:37;100923.84;;;2.43;52.70
62124;BME280;48110;47.532;19.078;2023-02-27T08:52:41;100917.47;;;2.47;53.00
62124;BME280;48110;47.532;19.078;2023-02-27T08:55:47;100925.34;;;2.59;52.21
62124;BME280;48110;47.532;19.078;2023-02-27T08:58:52;100926.28;;;2.84;51.85
62124;BME280;48110;47.532;19.078;2023-02-27T09:01:58;100933.69;;;2.52;51.90
62124;BME280;48110;47.532;19.078;2023-02-27T09:05:04;100949.19;;;2.42;52.67
62124;BME280;48110;47.532;19.078;2023-02-27T09:08:09;100943.25;;;3.03;50.84
62124;BME280;48110;47.532;19.078;2023-02-27T09:11:14;100939.69;;;3.04;51.32
62124;BME280;48110;47.532;19.078;2023-02-27T09:14:19;100938.41;;;3.10;51.33
62124;BME280;48110;47.532;19.078;2023-02-27T09:17:23;100948.53;;;3.40;50.45
62124;BME280;48110;47.532;19.078;2023-02-27T09:20:28;100939.28;;;2.98;51.74
62124;BME280;48110;47.532;19.078;2023-02-27T09:23:37;100940.41;;;3.06;51.26
62124;BME280;48110;47.532;19.078;2023-02-27T09:26:40;100940.41;;;3.06;51.85
62124;BME280;48110;47.532;19.078;2023-02-27T09:29:48;100945.75;;;3.67;50.59
62124;BME280;48110;47.532;19.078;2023-02-27T09:33:04;100948.91;;;3.59;49.99
62124;BME280;48110;47.532;19.078;2023-02-27T09:36:09;100950.13;;;3.30;51.53
62124;BME280;48110;47.532;19.078;2023-02-27T09:39:12;100946.66;;;3.29;52.04
62124;BME280;48110;47.532;19.078;2023-02-27T09:42:24;100947.53;;;3.17;51.75
62124;BME280;48110;47.532;19.078;2023-02-27T09:45:30;100953.47;;;3.44;51.49
62124;BME280;48110;47.532;19.078;2023-02-27T09:48:46;100952.47;;;3.71;49.65
62124;BME280;48110;47.532;19.078;2023-02-27T09:51:57;100956.19;;;3.79;50.02
62124;BME280;48110;47.532;19.078;2023-02-27T09:55:04;100953.31;;;3.71;50.28
62124;BME280;48110;47.532;19.078;2023-02-27T10:01:34;100955.44;;;4.49;48.32
62124;BME280;48110;47.532;19.078;2023-02-27T10:05:02;100951.47;;;4.08;48.80
62124;BME280;48110;47.532;19.078;2023-02-27T10:08:19;100955.09;;;3.94;48.96
62124;BME280;48110;47.532;19.078;2023-02-27T10:11:31;100962.81;;;3.48;49.44
62124;BME280;48110;47.532;19.078;2023-02-27T10:14:49;100963.59;;;3.98;48.78
62124;BME280;48110;47.532;19.078;2023-02-27T10:17:57;100969.47;;;4.25;47.30
62124;BME280;48110;47.532;19.078;2023-02-27T10:21:29;100958.47;;;3.97;49.08
62124;BME280;48110;47.532;19.078;2023-02-27T10:24:46;100961.53;;;4.84;46.50
62124;BME280;48110;47.532;19.078;2023-02-27T10:27:53;100965.00;;;5.07;46.04
62124;BME280;48110;47.532;19.078;2023-02-27T10:31:00;100963.03;;;4.64;46.59
62124;BME280;48110;47.532;19.078;2023-02-27T10:34:05;100962.50;;;5.16;45.50
62124;BME280;48110;47.532;19.078;2023-02-27T10:37:13;100960.09;;;5.24;44.69
62124;BME280;48110;47.532;19.078;2023-02-27T10:40:18;100959.63;;;5.19;45.31
62124;BME280;48110;47.532;19.078;2023-02-27T10:43:24;100963.56;;;5.14;45.38
62124;BME280;48110;47.532;19.078;2023-02-27T10:46:29;100959.69;;;4.85;46.42
62124;BME280;48110;47.532;19.078;2023-02-27T10:49:35;100959.50;;;4.88;44.95
62124;BME280;48110;47.532;19.078;2023-02-27T10:52:50;100951.28;;;4.57;45.99
62124;BME280;48110;47.532;19.078;2023-02-27T10:59:03;100948.50;;;4.94;45.48
62124;BME280;48110;47.532;19.078;2023-02-27T11:05:32;100955.81;;;5.12;45.49
62124;BME280;48110;47.532;19.078;2023-02-27T11:08:37;100956.16;;;5.30;45.06
62124;BME280;48110;47.532;19.078;2023-02-27T11:11:40;100960.22;;;5.34;45.08
62124;BME280;48110;47.532;19.078;2023-02-27T11:14:48;100955.06;;;5.33;45.94
62124;BME280;48110;47.532;19.078;2023-02-27T11:17:52;100958.87;;;5.95;44.70
62124;BME280;48110;47.532;19.078;2023-02-27T11:21:15;100963.97;;;6.08;43.80
62124;BME280;48110;47.532;19.078;2023-02-27T11:24:23;100956.97;;;6.91;43.04
62124;BME280;48110;47.532;19.078;2023-02-27T11:27:28;100967.19;;;7.85;40.74
62124;BME280;48110;47.532;19.078;2023-02-27T11:30:33;100965.09;;;7.09;40.75
62124;BME280;48110;47.532;19.078;2023-02-27T11:33:38;100964.38;;;7.68;40.49
62124;BME280;48110;47.532;19.078;2023-02-27T11:36:47;100967.69;;;6.37;42.35
62124;BME280;48110;47.532;19.078;2023-02-27T11:40:05;100968.47;;;5.07;45.30
62124;BME280;48110;47.532;19.078;2023-02-27T11:43:19;100966.66;;;5.52;44.45
62124;BME280;48110;47.532;19.078;2023-02-27T11:46:24;100972.28;;;5.48;44.62
62124;BME280;48110;47.532;19.078;2023-02-27T11:56:22;100972.03;;;5.95;43.27
62124;BME280;48110;47.532;19.078;2023-02-27T12:02:42;100954.66;;;7.08;42.41
62124;BME280;48110;47.532;19.078;2023-02-27T12:05:49;100963.91;;;8.80;38.61
62124;BME280;48110;47.532;19.078;2023-02-27T12:08:59;100960.53;;;9.34;37.51
62124;BME280;48110;47.532;19.078;2023-02-27T12:12:17;100964.19;;;10.76;34.98
62124;BME280;48110;47.532;19.078;2023-02-27T12:15:26;100962.44;;;11.78;32.23
62124;BME280;48110;47.532;19.078;2023-02-27T12:18:34;100960.97;;;11.50;33.18
62124;BME280;48110;47.532;19.078;2023-02-27T12:21:40;100974.16;;;10.38;34.18
62124;BME280;48110;47.532;19.078;2023-02-27T12:24:52;100973.09;;;8.76;36.54
62124;BME280;48110;47.532;19.078;2023-02-27T12:34:27;100976.97;;;10.55;33.73
62124;BME280;48110;47.532;19.078;2023-02-27T12:37:35;100980.47;;;9.65;35.37
62124;BME280;48110;47.532;19.078;2023-02-27T12:40:54;100977.84;;;10.63;34.40
62124;BME280;48110;47.532;19.078;2023-02-27T12:44:27;100980.88;;;9.88;34.45
62124;BME280;48110;47.532;19.078;2023-02-27T13:00:52;100996.19;;;8.25;36.70
62124;BME280;48110;47.532;19.078;2023-02-27T13:04:05;100990.94;;;8.35;37.42
62124;BME280;48110;47.532;19.078;2023-02-27T13:07:19;100992.19;;;8.41;37.19
62124;BME280;48110;47.532;19.078;2023-02-27T13:10:33;100997.34;;;9.27;36.44
62124;BME280;48110;47.532;19.078;2023-02-27T13:16:49;100999.84;;;8.44;37.41
62124;BME280;48110;47.532;19.078;2023-02-27T13:20:07;100994.16;;;7.89;38.50
62124;BME280;48110;47.532;19.078;2023-02-27T13:29:42;100989.84;;;6.35;41.06
62124;BME280;48110;47.532;19.078;2023-02-27T13:36:17;100997.72;;;6.14;42.78
62124;BME280;48110;47.532;19.078;2023-02-27T13:39:37;100995.38;;;7.35;40.10
62124;BME280;48110;47.532;19.078;2023-02-27T13:45:50;100998.75;;;7.87;39.36
62124;BME280;48110;47.532;19.078;2023-02-27T13:49:19;101002.44;;;6.31;42.52
62124;BME280;48110;47.532;19.078;2023-02-27T13:52:35;101004.75;;;6.57;42.18
62124;BME280;48110;47.532;19.078;2023-02-27T13:55:41;100996.19;;;6.85;40.99
62124;BME280;48110;47.532;19.078;2023-02-27T13:58:45;101012.50;;;6.26;42.53
62124;BME280;48110;47.532;19.078;2023-02-27T14:01:58;101006.94;;;6.08;42.30
62124;BME280;48110;47.532;19.078;2023-02-27T14:05:04;101002.31;;;5.90;43.04
62124;BME280;48110;47.532;19.078;2023-02-27T14:17:43;101005.69;;;5.36;44.56
62124;BME280;48110;47.532;19.078;2023-02-27T14:20:48;100990.47;;;5.40;45.64
62124;BME280;48110;47.532;19.078;2023-02-27T14:23:53;100998.56;;;6.15;42.94
62124;BME280;48110;47.532;19.078;2023-02-27T14:26:57;100989.34;;;6.09;44.22
62124;BME280;48110;47.532;19.078;2023-02-27T14:30:05;100999.59;;;6.55;42.37
62124;BME280;48110;47.532;19.078;2023-02-27T14:33:20;100999.84;;;6.52;41.62
62124;BME280;48110;47.532;19.078;2023-02-27T14:36:52;101001.84;;;6.28;42.28
62124;BME280;48110;47.532;19.078;2023-02-27T14:40:00;101006.59;;;6.02;42.67
62124;BME280;48110;47.532;19.078;2023-02-27T14:43:11;100999.28;;;6.05;43.42
62124;BME280;48110;47.532;19.078;2023-02-27T14:49:32;100998.94;;;5.77;43.26
62124;BME280;48110;47.532;19.078;2023-02-27T14:52:40;100999.09;;;5.53;43.78
62124;BME280;48110;47.532;19.078;2023-02-27T14:55:51;101003.00;;;4.92;45.36
62124;BME280;48110;47.532;19.078;2023-02-27T14:58:57;101007.47;;;4.67;45.82
62124;BME280;48110;47.532;19.078;2023-02-27T15:02:17;101006.22;;;4.60;45.72
62124;BME280;48110;47.532;19.078;2023-02-27T15:05:25;101014.44;;;4.45;46.11
62124;BME280;48110;47.532;19.078;2023-02-27T15:08:33;101012.69;;;4.32;46.49
62124;BME280;48110;47.532;19.078;2023-02-27T15:11:41;101019.72;;;4.56;45.96
62124;BME280;48110;47.532;19.078;2023-02-27T15:15:05;101024.91;;;4.68;45.58
62124;BME280;48110;47.532;19.078;2023-02-27T15:18:11;101026.09;;;4.41;47.17
62124;BME280;48110;47.532;19.078;2023-02-27T15:21:18;101040.25;;;4.27;47.55
62124;BME280;48110;47.532;19.078;2023-02-27T15:27:47;101047.44;;;4.36;47.91
62124;BME280;48110;47.532;19.078;2023-02-27T15:30:52;101049.97;;;4.14;47.89
62124;BME280;48110;47.532;19.078;2023-02-27T15:34:01;101043.25;;;4.10;48.11
62124;BME280;48110;47.532;19.078;2023-02-27T15:37:09;101054.81;;;4.07;48.75
62124;BME280;48110;47.532;19.078;2023-02-27T15:40:21;101062.66;;;4.20;48.81
62124;BME280;48110;47.532;19.078;2023-02-27T15:43:29;101067.94;;;4.07;48.80
62124;BME280;48110;47.532;19.078;2023-02-27T15:46:35;101073.97;;;3.97;48.86
62124;BME280;48110;47.532;19.078;2023-02-27T15:49:40;101075.03;;;3.81;48.63
62124;BME280;48110;47.532;19.078;2023-02-27T15:52:54;101079.78;;;3.76;48.87
62124;BME280;48110;47.532;19.078;2023-02-27T15:56:03;101089.31;;;3.65;48.67
62124;BME280;48110;47.532;19.078;2023-02-27T15:59:11;101093.97;;;3.61;48.91
62124;BME280;48110;47.532;19.078;2023-02-27T16:02:23;101091.34;;;3.48;49.90
62124;BME280;48110;47.532;19.078;2023-02-27T16:05:33;101094.91;;;3.47;49.77
62124;BME280;48110;47.532;19.078;2023-02-27T16:08:39;101098.47;;;3.46;49.90
62124;BME280;48110;47.532;19.078;2023-02-27T16:11:49;101099.19;;;3.36;50.34
62124;BME280;48110;47.532;19.078;2023-02-27T16:15:29;101110.31;;;3.27;50.52
62124;BME280;48110;47.532;19.078;2023-02-27T16:18:45;101113.94;;;3.12;51.23
62124;BME280;48110;47.532;19.078;2023-02-27T16:22:04;101110.63;;;3.22;50.88
62124;BME280;48110;47.532;19.078;2023-02-27T16:25:16;101118.87;;;3.16;51.03
62124;BME280;48110;47.532;19.078;2023-02-27T16:28:21;101130.16;;;2.91;51.53
62124;BME280;48110;47.532;19.078;2023-02-27T16:31:37;101128.69;;;2.87;52.25
62124;BME280;48110;47.532;19.078;2023-02-27T16:34:43;101135.44;;;3.04;52.17
62124;BME280;48110;47.532;19.078;2023-02-27T16:37:51;101151.13;;;2.91;52.81
62124;BME280;48110;47.532;19.078;2023-02-27T16:40:57;101149.56;;;2.89;52.82
62124;BME280;48110;47.532;19.078;2023-02-27T16:44:08;101152.19;;;3.01;52.63
62124;BME280;48110;47.532;19.078;2023-02-27T16:47:15;101156.56;;;2.88;52.89
62124;BME280;48110;47.532;19.078;2023-02-27T16:50:27;101162.81;;;2.73;53.64
62124;BME280;48110;47.532;19.078;2023-02-27T16:53:35;101170.13;;;2.68;53.97
62124;BME280;48110;47.532;19.078;2023-02-27T16:56:46;101182.19;;;2.71;53.30
62124;BME280;48110;47.532;19.078;2023-02-27T16:59:55;101172.19;;;2.63;54.00
62124;BME280;48110;47.532;19.078;2023-02-27T17:03:06;101173.41;;;2.57;53.82
62124;BME280;48110;47.532;19.078;2023-02-27T17:06:17;101187.75;;;2.38;54.88
62124;BME280;48110;47.532;19.078;2023-02-27T17:09:24;101191.88;;;2.28;55.12
62124;BME280;48110;47.532;19.078;2023-02-27T17:12:31;101194.62;;;2.12;55.68
62124;BME280;48110;47.532;19.078;2023-02-27T17:15:38;101202.56;;;2.25;55.33
62124;BME280;48110;47.532;19.078;2023-02-27T17:18:44;101200.31;;;2.18;55.12
62124;BME280;48110;47.532;19.078;2023-02-27T17:21:49;101215.16;;;2.04;55.66
62124;BME280;48110;47.532;19.078;2023-02-27T17:24:54;101212.28;;;2.08;55.20
62124;BME280;48110;47.532;19.078;2023-02-27T17:28:00;101205.66;;;2.03;55.50
62124;BME280;48110;47.532;19.078;2023-02-27T17:31:11;101214.22;;;1.91;55.39
62124;BME280;48110;47.532;19.078;2023-02-27T17:34:19;101209.28;;;2.00;55.14
62124;BME280;48110;47.532;19.078;2023-02-27T17:37:26;101220.31;;;2.05;55.50
62124;BME280;48110;47.532;19.078;2023-02-27T17:40:35;101220.88;;;1.82;55.13
62124;BME280;48110;47.532;19.078;2023-02-27T17:43:40;101223.09;;;1.74;56.62
62124;BME280;48110;47.532;19.078;2023-02-27T17:46:45;101220.63;;;1.57;56.99
62124;BME280;48110;47.532;19.078;2023-02-27T17:49:52;101220.66;;;1.41;57.85
62124;BME280;48110;47.532;19.078;2023-02-27T17:53:01;101223.94;;;1.30;58.03
62124;BME280;48110;47.532;19.078;2023-02-27T17:56:09;101228.47;;;1.27;58.88
62124;BME280;48110;47.532;19.078;2023-02-27T17:59:16;101233.47;;;1.16;58.64
62124;BME280;48110;47.532;19.078;2023-02-27T18:02:27;101236.69;;;1.05;58.98
62124;BME280;48110;47.532;19.078;2023-02-27T18:05:33;101239.56;;;1.01;59.11
62124;BME280;48110;47.532;19.078;2023-02-27T18:08:43;101238.06;;;0.97;59.69
62124;BME280;48110;47.532;19.078;2023-02-27T18:11:54;101244.28;;;0.94;60.63
62124;BME280;48110;47.532;19.078;2023-02-27T18:14:59;101250.87;;;0.85;60.89
62124;BME280;48110;47.532;19.078;2023-02-27T18:18:04;101248.91;;;0.89;60.92
62124;BME280;48110;47.532;19.078;2023-02-27T18:21:17;101262.81;;;1.05;60.75
62124;BME280;48110;47.532;19.078;2023-02-27T18:24:26;101279.53;;;1.48;59.77
62124;BME280;48110;47.532;19.078;2023-02-27T18:27:35;101287.06;;;1.39;60.45
62124;BME280;48110;47.532;19.078;2023-02-27T18:30:41;101279.62;;;1.31;60.54
62124;BME280;48110;47.532;19.078;2023-02-27T18:33:48;101280.41;;;1.17;61.08
62124;BME280;48110;47.532;19.078;2023-02-27T18:36:56;101284.66;;;1.20;61.12